sensor_id;sensor_type;location;lat;lon;timestamp;P1;P2;P0
82667;PMS5003;72691;51.374;-0.176;2023-10-13T00:00:03;1;1;
82667;PMS5003;72691;51.374;-0.176;2023-10-13T00:02:28;0;0;
82667;PMS5003;72691;51.374;-0.176;2023-10-13T00:04:53;0;0;
82667;PMS5003;72691;51.374;-0.176;2023-10-13T00:07:19;0;0;
82667;PMS5003;72691;51.374;-0.176;2023-10-13T00:09:44;1;1;
82667;PMS5003;72691;51.374;-0.176;2023-10-13T00:12:09;0;0;
82667;PMS5003;72691;51.374;-0.176;2023-10-13T00:14:35;0;0;
82667;PMS5003;72691;51.374;-0.176;2023-10-13T00:17:00;0;0;
82667;PMS5003;72691;51.374;-0.176;2023-10-13T00:19:26;0;0;
82667;PMS5003;72691;51.374;-0.176;2023-10-13T00:21:51;0;0;
82667;PMS5003;72691;51.374;-0.176;2023-10-13T00:24:16;0;0;
82667;PMS5003;72691;51.374;-0.176;2023-10-13T00:26:42;0;0;
82667;PMS5003;72691;51.374;-0.176;2023-10-13T00:29:07;0;0;
82667;PMS5003;72691;51.374;-0.176;2023-10-13T00:31:32;0;0;
82667;PMS5003;72691;51.374;-0.176;2023-10-13T00:33:58;0;0;
82667;PMS5003;72691;51.374;-0.176;2023-10-13T00:36:23;0;0;
82667;PMS5003;72691;51.374;-0.176;2023-10-13T00:38:48;0;0;
82667;PMS5003;72691;51.374;-0.176;2023-10-13T00:41:14;0;0;
82667;PMS5003;72691;51.374;-0.176;2023-10-13T00:43:44;0;0;
82667;PMS5003;72691;51.374;-0.176;2023-10-13T00:46:04;0;0;
82667;PMS5003;72691;51.374;-0.176;2023-10-13T00:48:31;1;0;
82667;PMS5003;72691;51.374;-0.176;2023-10-13T00:50:56;0;0;
82667;PMS5003;72691;51.374;-0.176;2023-10-13T00:53:20;0;0;
82667;PMS5003;72691;51.374;-0.176;2023-10-13T00:55:46;0;0;
82667;PMS5003;72691;51.374;-0.176;2023-10-13T00:58:11;0;0;
82667;PMS5003;72691;51.374;-0.176;2023-10-13T01:00:41;0;0;
82667;PMS5003;72691;51.374;-0.176;2023-10-13T01:03:02;0;0;
82667;PMS5003;72691;51.374;-0.176;2023-10-13T01:05:27;0;0;
82667;PMS5003;72691;51.374;-0.176;2023-10-13T01:07:52;0;0;
82667;PMS5003;72691;51.374;-0.176;2023-10-13T01:10:18;1;1;
82667;PMS5003;72691;51.374;-0.176;2023-10-13T01:12:43;1;1;
82667;PMS5003;72691;51.374;-0.176;2023-10-13T01:15:09;2;2;
82667;PMS5003;72691;51.374;-0.176;2023-10-13T01:17:35;0;0;
82667;PMS5003;72691;51.374;-0.176;2023-10-13T01:19:59;1;1;
82667;PMS5003;72691;51.374;-0.176;2023-10-13T01:22:25;2;2;
82667;PMS5003;72691;51.374;-0.176;2023-10-13T01:24:50;2;2;
82667;PMS5003;72691;51.374;-0.176;2023-10-13T01:27:15;3;3;
82667;PMS5003;72691;51.374;-0.176;2023-10-13T01:29:41;2;2;
82667;PMS5003;72691;51.374;-0.176;2023-10-13T01:32:06;3;3;
82667;PMS5003;72691;51.374;-0.176;2023-10-13T01:34:31;5;4;
82667;PMS5003;72691;51.374;-0.176;2023-10-13T01:36:57;4;4;
82667;PMS5003;72691;51.374;-0.176;2023-10-13T01:39:22;3;3;
82667;PMS5003;72691;51.374;-0.176;2023-10-13T01:41:47;6;6;
82667;PMS5003;72691;51.374;-0.176;2023-10-13T01:44:12;9;7;
82667;PMS5003;72691;51.374;-0.176;2023-10-13T01:46:38;6;5;
82667;PMS5003;72691;51.374;-0.176;2023-10-13T01:49:03;7;6;
82667;PMS5003;72691;51.374;-0.176;2023-10-13T01:51:29;9;8;
82667;PMS5003;72691;51.374;-0.176;2023-10-13T01:53:54;9;8;
82667;PMS5003;72691;51.374;-0.176;2023-10-13T01:56:19;8;7;
82667;PMS5003;72691;51.374;-0.176;2023-10-13T01:58:44;7;7;
82667;PMS5003;72691;51.374;-0.176;2023-10-13T02:01:09;7;7;
82667;PMS5003;72691;51.374;-0.176;2023-10-13T02:03:35;7;7;
82667;PMS5003;72691;51.374;-0.176;2023-10-13T02:06:00;10;10;
82667;PMS5003;72691;51.374;-0.176;2023-10-13T02:08:26;13;12;
82667;PMS5003;72691;51.374;-0.176;2023-10-13T02:10:51;11;11;
82667;PMS5003;72691;51.374;-0.176;2023-10-13T02:13:17;12;10;
82667;PMS5003;72691;51.374;-0.176;2023-10-13T02:15:42;10;9;
82667;PMS5003;72691;51.374;-0.176;2023-10-13T02:18:08;10;10;
82667;PMS5003;72691;51.374;-0.176;2023-10-13T02:20:33;13;12;
82667;PMS5003;72691;51.374;-0.176;2023-10-13T02:22:59;9;9;
82667;PMS5003;72691;51.374;-0.176;2023-10-13T02:25:24;10;10;
82667;PMS5003;72691;51.374;-0.176;2023-10-13T02:27:49;12;11;
82667;PMS5003;72691;51.374;-0.176;2023-10-13T02:30:15;7;7;
82667;PMS5003;72691;51.374;-0.176;2023-10-13T02:32:40;12;11;
82667;PMS5003;72691;51.374;-0.176;2023-10-13T02:35:05;12;12;
82667;PMS5003;72691;51.374;-0.176;2023-10-13T02:37:30;13;12;
82667;PMS5003;72691;51.374;-0.176;2023-10-13T02:39:56;13;13;
82667;PMS5003;72691;51.374;-0.176;2023-10-13T02:42:22;15;15;
82667;PMS5003;72691;51.374;-0.176;2023-10-13T02:44:47;11;10;
82667;PMS5003;72691;51.374;-0.176;2023-10-13T02:47:12;17;16;
82667;PMS5003;72691;51.374;-0.176;2023-10-13T02:49:37;15;15;
82667;PMS5003;72691;51.374;-0.176;2023-10-13T02:52:02;14;14;
82667;PMS5003;72691;51.374;-0.176;2023-10-13T02:54:27;18;15;
82667;PMS5003;72691;51.374;-0.176;2023-10-13T02:56:53;16;14;
82667;PMS5003;72691;51.374;-0.176;2023-10-13T02:59:18;20;18;
82667;PMS5003;72691;51.374;-0.176;2023-10-13T03:01:44;16;16;
82667;PMS5003;72691;51.374;-0.176;2023-10-13T03:04:09;20;19;
82667;PMS5003;72691;51.374;-0.176;2023-10-13T03:06:34;19;18;
82667;PMS5003;72691;51.374;-0.176;2023-10-13T03:09:02;14;13;
82667;PMS5003;72691;51.374;-0.176;2023-10-13T03:11:24;15;15;
82667;PMS5003;72691;51.374;-0.176;2023-10-13T03:13:50;19;17;
82667;PMS5003;72691;51.374;-0.176;2023-10-13T03:16:15;17;17;
82667;PMS5003;72691;51.374;-0.176;2023-10-13T03:18:40;18;16;
82667;PMS5003;72691;51.374;-0.176;2023-10-13T03:21:06;22;17;
82667;PMS5003;72691;51.374;-0.176;2023-10-13T03:23:31;17;17;
82667;PMS5003;72691;51.374;-0.176;2023-10-13T03:25:56;21;19;
82667;PMS5003;72691;51.374;-0.176;2023-10-13T03:28:22;20;19;
82667;PMS5003;72691;51.374;-0.176;2023-10-13T03:30:47;19;16;
82667;PMS5003;72691;51.374;-0.176;2023-10-13T03:33:12;17;16;
82667;PMS5003;72691;51.374;-0.176;2023-10-13T03:35:38;21;19;
82667;PMS5003;72691;51.374;-0.176;2023-10-13T03:38:04;21;21;
82667;PMS5003;72691;51.374;-0.176;2023-10-13T03:40:29;16;16;
82667;PMS5003;72691;51.374;-0.176;2023-10-13T03:42:55;19;18;
82667;PMS5003;72691;51.374;-0.176;2023-10-13T03:45:20;18;17;
82667;PMS5003;72691;51.374;-0.176;2023-10-13T03:47:46;13;13;
82667;PMS5003;72691;51.374;-0.176;2023-10-13T03:50:11;17;17;
82667;PMS5003;72691;51.374;-0.176;2023-10-13T03:52:36;13;13;
82667;PMS5003;72691;51.374;-0.176;2023-10-13T03:55:01;16;15;
82667;PMS5003;72691;51.374;-0.176;2023-10-13T03:57:26;13;13;
82667;PMS5003;72691;51.374;-0.176;2023-10-13T03:59:52;13;13;
82667;PMS5003;72691;51.374;-0.176;2023-10-13T04:02:17;12;12;
82667;PMS5003;72691;51.374;-0.176;2023-10-13T04:04:42;18;18;
82667;PMS5003;72691;51.374;-0.176;2023-10-13T04:07:07;16;15;
82667;PMS5003;72691;51.374;-0.176;2023-10-13T04:09:33;18;18;
82667;PMS5003;72691;51.374;-0.176;2023-10-13T04:11:58;13;13;
82667;PMS5003;72691;51.374;-0.176;2023-10-13T04:14:23;14;13;
82667;PMS5003;72691;51.374;-0.176;2023-10-13T04:16:48;13;13;
82667;PMS5003;72691;51.374;-0.176;2023-10-13T04:19:14;17;15;
82667;PMS5003;72691;51.374;-0.176;2023-10-13T04:21:39;14;13;
82667;PMS5003;72691;51.374;-0.176;2023-10-13T04:24:05;14;14;
82667;PMS5003;72691;51.374;-0.176;2023-10-13T04:26:30;15;14;
82667;PMS5003;72691;51.374;-0.176;2023-10-13T04:28:56;15;14;
82667;PMS5003;72691;51.374;-0.176;2023-10-13T04:31:26;13;12;
82667;PMS5003;72691;51.374;-0.176;2023-10-13T04:33:47;13;13;
82667;PMS5003;72691;51.374;-0.176;2023-10-13T04:36:12;14;14;
82667;PMS5003;72691;51.374;-0.176;2023-10-13T04:38:37;16;15;
82667;PMS5003;72691;51.374;-0.176;2023-10-13T04:41:02;16;15;
82667;PMS5003;72691;51.374;-0.176;2023-10-13T04:43:28;16;15;
82667;PMS5003;72691;51.374;-0.176;2023-10-13T04:45:59;18;17;
82667;PMS5003;72691;51.374;-0.176;2023-10-13T04:48:19;15;15;
82667;PMS5003;72691;51.374;-0.176;2023-10-13T04:50:45;13;13;
82667;PMS5003;72691;51.374;-0.176;2023-10-13T04:53:10;15;14;
82667;PMS5003;72691;51.374;-0.176;2023-10-13T04:55:35;17;16;
82667;PMS5003;72691;51.374;-0.176;2023-10-13T04:58:00;13;12;
82667;PMS5003;72691;51.374;-0.176;2023-10-13T05:00:26;14;14;
82667;PMS5003;72691;51.374;-0.176;2023-10-13T05:02:51;14;13;
82667;PMS5003;72691;51.374;-0.176;2023-10-13T05:05:16;15;14;
82667;PMS5003;72691;51.374;-0.176;2023-10-13T05:07:41;14;14;
82667;PMS5003;72691;51.374;-0.176;2023-10-13T05:10:07;19;15;
82667;PMS5003;72691;51.374;-0.176;2023-10-13T05:12:32;14;14;
82667;PMS5003;72691;51.374;-0.176;2023-10-13T05:14:57;15;15;
82667;PMS5003;72691;51.374;-0.176;2023-10-13T05:17:22;14;14;
82667;PMS5003;72691;51.374;-0.176;2023-10-13T05:19:48;14;13;
82667;PMS5003;72691;51.374;-0.176;2023-10-13T05:22:13;15;13;
82667;PMS5003;72691;51.374;-0.176;2023-10-13T05:24:38;17;16;
82667;PMS5003;72691;51.374;-0.176;2023-10-13T05:27:04;16;16;
82667;PMS5003;72691;51.374;-0.176;2023-10-13T05:29:29;14;14;
82667;PMS5003;72691;51.374;-0.176;2023-10-13T05:31:55;12;11;
82667;PMS5003;72691;51.374;-0.176;2023-10-13T05:34:20;15;15;
82667;PMS5003;72691;51.374;-0.176;2023-10-13T05:36:46;14;14;
82667;PMS5003;72691;51.374;-0.176;2023-10-13T05:39:11;16;14;
82667;PMS5003;72691;51.374;-0.176;2023-10-13T05:41:36;14;12;
82667;PMS5003;72691;51.374;-0.176;2023-10-13T05:44:01;16;15;
82667;PMS5003;72691;51.374;-0.176;2023-10-13T05:46:27;15;15;
82667;PMS5003;72691;51.374;-0.176;2023-10-13T05:48:52;11;11;
82667;PMS5003;72691;51.374;-0.176;2023-10-13T05:51:17;17;17;
82667;PMS5003;72691;51.374;-0.176;2023-10-13T05:53:43;14;13;
82667;PMS5003;72691;51.374;-0.176;2023-10-13T05:56:09;16;15;
82667;PMS5003;72691;51.374;-0.176;2023-10-13T05:58:34;13;13;
82667;PMS5003;72691;51.374;-0.176;2023-10-13T06:01:00;14;14;
82667;PMS5003;72691;51.374;-0.176;2023-10-13T06:03:25;12;11;
82667;PMS5003;72691;51.374;-0.176;2023-10-13T06:05:51;14;13;
82667;PMS5003;72691;51.374;-0.176;2023-10-13T06:08:17;17;16;
82667;PMS5003;72691;51.374;-0.176;2023-10-13T06:10:43;15;14;
82667;PMS5003;72691;51.374;-0.176;2023-10-13T06:13:07;14;13;
82667;PMS5003;72691;51.374;-0.176;2023-10-13T06:15:35;16;15;
82667;PMS5003;72691;51.374;-0.176;2023-10-13T06:17:58;14;14;
82667;PMS5003;72691;51.374;-0.176;2023-10-13T06:20:23;18;16;
82667;PMS5003;72691;51.374;-0.176;2023-10-13T06:22:48;13;13;
82667;PMS5003;72691;51.374;-0.176;2023-10-13T06:25:13;17;16;
82667;PMS5003;72691;51.374;-0.176;2023-10-13T06:27:38;18;15;
82667;PMS5003;72691;51.374;-0.176;2023-10-13T06:30:04;14;13;
82667;PMS5003;72691;51.374;-0.176;2023-10-13T06:32:29;18;17;
82667;PMS5003;72691;51.374;-0.176;2023-10-13T06:34:54;16;16;
82667;PMS5003;72691;51.374;-0.176;2023-10-13T06:37:20;12;12;
82667;PMS5003;72691;51.374;-0.176;2023-10-13T06:39:45;13;12;
82667;PMS5003;72691;51.374;-0.176;2023-10-13T06:42:10;11;11;
82667;PMS5003;72691;51.374;-0.176;2023-10-13T06:44:36;14;12;
82667;PMS5003;72691;51.374;-0.176;2023-10-13T06:47:02;16;14;
82667;PMS5003;72691;51.374;-0.176;2023-10-13T06:49:27;12;12;
82667;PMS5003;72691;51.374;-0.176;2023-10-13T06:51:53;14;14;
82667;PMS5003;72691;51.374;-0.176;2023-10-13T06:54:18;15;13;
82667;PMS5003;72691;51.374;-0.176;2023-10-13T06:56:43;15;14;
82667;PMS5003;72691;51.374;-0.176;2023-10-13T06:59:08;14;14;
82667;PMS5003;72691;51.374;-0.176;2023-10-13T07:01:34;15;15;
82667;PMS5003;72691;51.374;-0.176;2023-10-13T07:04:00;15;14;
82667;PMS5003;72691;51.374;-0.176;2023-10-13T07:06:25;16;15;
82667;PMS5003;72691;51.374;-0.176;2023-10-13T07:08:50;15;15;
82667;PMS5003;72691;51.374;-0.176;2023-10-13T07:11:16;17;16;
82667;PMS5003;72691;51.374;-0.176;2023-10-13T07:13:41;17;16;
82667;PMS5003;72691;51.374;-0.176;2023-10-13T07:16:06;19;18;
82667;PMS5003;72691;51.374;-0.176;2023-10-13T07:18:32;13;12;
82667;PMS5003;72691;51.374;-0.176;2023-10-13T07:20:57;17;16;
82667;PMS5003;72691;51.374;-0.176;2023-10-13T07:23:22;16;16;
82667;PMS5003;72691;51.374;-0.176;2023-10-13T07:25:51;17;15;
82667;PMS5003;72691;51.374;-0.176;2023-10-13T07:28:12;16;16;
82667;PMS5003;72691;51.374;-0.176;2023-10-13T07:30:38;16;16;
82667;PMS5003;72691;51.374;-0.176;2023-10-13T07:33:04;17;16;
82667;PMS5003;72691;51.374;-0.176;2023-10-13T07:35:29;18;16;
82667;PMS5003;72691;51.374;-0.176;2023-10-13T07:37:54;18;17;
82667;PMS5003;72691;51.374;-0.176;2023-10-13T07:40:20;17;15;
82667;PMS5003;72691;51.374;-0.176;2023-10-13T07:42:45;17;16;
82667;PMS5003;72691;51.374;-0.176;2023-10-13T07:45:10;15;14;
82667;PMS5003;72691;51.374;-0.176;2023-10-13T07:47:35;21;18;
82667;PMS5003;72691;51.374;-0.176;2023-10-13T07:50:01;20;18;
82667;PMS5003;72691;51.374;-0.176;2023-10-13T07:52:26;18;17;
82667;PMS5003;72691;51.374;-0.176;2023-10-13T07:54:51;19;19;
82667;PMS5003;72691;51.374;-0.176;2023-10-13T07:57:16;16;15;
82667;PMS5003;72691;51.374;-0.176;2023-10-13T07:59:42;18;16;
82667;PMS5003;72691;51.374;-0.176;2023-10-13T08:02:07;17;16;
82667;PMS5003;72691;51.374;-0.176;2023-10-13T08:04:32;21;19;
82667;PMS5003;72691;51.374;-0.176;2023-10-13T08:06:58;18;18;
82667;PMS5003;72691;51.374;-0.176;2023-10-13T08:09:23;18;17;
82667;PMS5003;72691;51.374;-0.176;2023-10-13T08:11:48;18;18;
82667;PMS5003;72691;51.374;-0.176;2023-10-13T08:14:14;22;21;
82667;PMS5003;72691;51.374;-0.176;2023-10-13T08:16:39;18;16;
82667;PMS5003;72691;51.374;-0.176;2023-10-13T08:19:05;18;17;
82667;PMS5003;72691;51.374;-0.176;2023-10-13T08:21:30;18;16;
82667;PMS5003;72691;51.374;-0.176;2023-10-13T08:23:55;17;16;
82667;PMS5003;72691;51.374;-0.176;2023-10-13T08:26:21;19;18;
82667;PMS5003;72691;51.374;-0.176;2023-10-13T08:28:46;15;15;
82667;PMS5003;72691;51.374;-0.176;2023-10-13T08:31:11;16;16;
82667;PMS5003;72691;51.374;-0.176;2023-10-13T08:33:36;16;14;
82667;PMS5003;72691;51.374;-0.176;2023-10-13T08:36:02;17;17;
82667;PMS5003;72691;51.374;-0.176;2023-10-13T08:38:27;16;15;
82667;PMS5003;72691;51.374;-0.176;2023-10-13T08:40:53;18;18;
82667;PMS5003;72691;51.374;-0.176;2023-10-13T08:43:18;18;18;
82667;PMS5003;72691;51.374;-0.176;2023-10-13T08:45:43;19;16;
82667;PMS5003;72691;51.374;-0.176;2023-10-13T08:48:09;18;17;
82667;PMS5003;72691;51.374;-0.176;2023-10-13T08:50:34;22;21;
82667;PMS5003;72691;51.374;-0.176;2023-10-13T08:52:59;17;17;
82667;PMS5003;72691;51.374;-0.176;2023-10-13T08:55:24;24;23;
82667;PMS5003;72691;51.374;-0.176;2023-10-13T08:57:49;24;22;
82667;PMS5003;72691;51.374;-0.176;2023-10-13T09:00:14;20;19;
82667;PMS5003;72691;51.374;-0.176;2023-10-13T09:02:39;21;19;
82667;PMS5003;72691;51.374;-0.176;2023-10-13T09:05:05;15;15;
82667;PMS5003;72691;51.374;-0.176;2023-10-13T09:07:31;21;21;
82667;PMS5003;72691;51.374;-0.176;2023-10-13T09:09:56;17;16;
82667;PMS5003;72691;51.374;-0.176;2023-10-13T09:12:23;17;16;
82667;PMS5003;72691;51.374;-0.176;2023-10-13T09:52:39;14;8;
82667;PMS5003;72691;51.374;-0.176;2023-10-13T10:22:11;49;47;
82667;PMS5003;72691;51.374;-0.176;2023-10-13T10:24:37;63;60;
82667;PMS5003;72691;51.374;-0.176;2023-10-13T10:27:02;47;44;
82667;PMS5003;72691;51.374;-0.176;2023-10-13T10:45:46;6;6;
82667;PMS5003;72691;51.374;-0.176;2023-10-13T10:48:11;13;13;
82667;PMS5003;72691;51.374;-0.176;2023-10-13T10:50:35;15;13;
82667;PMS5003;72691;51.374;-0.176;2023-10-13T10:53:01;14;13;
82667;PMS5003;72691;51.374;-0.176;2023-10-13T10:55:29;10;9;
82667;PMS5003;72691;51.374;-0.176;2023-10-13T10:57:58;14;13;
82667;PMS5003;72691;51.374;-0.176;2023-10-13T11:00:20;13;13;
82667;PMS5003;72691;51.374;-0.176;2023-10-13T11:05:11;14;14;
82667;PMS5003;72691;51.374;-0.176;2023-10-13T11:07:36;13;13;
82667;PMS5003;72691;51.374;-0.176;2023-10-13T11:12:27;14;13;
82667;PMS5003;72691;51.374;-0.176;2023-10-13T11:15:01;15;15;
82667;PMS5003;72691;51.374;-0.176;2023-10-13T11:17:19;14;13;
82667;PMS5003;72691;51.374;-0.176;2023-10-13T11:19:43;15;14;
82667;PMS5003;72691;51.374;-0.176;2023-10-13T11:22:10;15;15;
82667;PMS5003;72691;51.374;-0.176;2023-10-13T11:26:58;14;13;
82667;PMS5003;72691;51.374;-0.176;2023-10-13T11:31:49;16;15;
82667;PMS5003;72691;51.374;-0.176;2023-10-13T11:34:15;18;18;
82667;PMS5003;72691;51.374;-0.176;2023-10-13T11:36:40;18;17;
82667;PMS5003;72691;51.374;-0.176;2023-10-13T11:39:06;18;18;
82667;PMS5003;72691;51.374;-0.176;2023-10-13T11:41:31;18;16;
82667;PMS5003;72691;51.374;-0.176;2023-10-13T11:43:56;18;17;
82667;PMS5003;72691;51.374;-0.176;2023-10-13T11:46:22;17;16;
82667;PMS5003;72691;51.374;-0.176;2023-10-13T11:48:46;15;14;
82667;PMS5003;72691;51.374;-0.176;2023-10-13T11:51:12;13;13;
82667;PMS5003;72691;51.374;-0.176;2023-10-13T11:53:37;16;14;
82667;PMS5003;72691;51.374;-0.176;2023-10-13T11:56:03;16;14;
82667;PMS5003;72691;51.374;-0.176;2023-10-13T11:58:28;16;13;
82667;PMS5003;72691;51.374;-0.176;2023-10-13T12:00:53;12;11;
82667;PMS5003;72691;51.374;-0.176;2023-10-13T12:03:18;9;9;
82667;PMS5003;72691;51.374;-0.176;2023-10-13T12:05:44;13;12;
82667;PMS5003;72691;51.374;-0.176;2023-10-13T12:08:09;10;10;
82667;PMS5003;72691;51.374;-0.176;2023-10-13T12:10:34;9;9;
82667;PMS5003;72691;51.374;-0.176;2023-10-13T12:13:00;11;11;
82667;PMS5003;72691;51.374;-0.176;2023-10-13T12:15:25;8;8;
82667;PMS5003;72691;51.374;-0.176;2023-10-13T12:17:50;10;9;
82667;PMS5003;72691;51.374;-0.176;2023-10-13T12:20:15;12;10;
82667;PMS5003;72691;51.374;-0.176;2023-10-13T12:22:40;8;8;
82667;PMS5003;72691;51.374;-0.176;2023-10-13T12:25:06;8;8;
82667;PMS5003;72691;51.374;-0.176;2023-10-13T12:27:31;10;9;
82667;PMS5003;72691;51.374;-0.176;2023-10-13T12:29:57;6;6;
82667;PMS5003;72691;51.374;-0.176;2023-10-13T12:32:22;7;7;
82667;PMS5003;72691;51.374;-0.176;2023-10-13T12:34:47;6;5;
82667;PMS5003;72691;51.374;-0.176;2023-10-13T12:37:13;10;7;
82667;PMS5003;72691;51.374;-0.176;2023-10-13T12:39:38;7;7;
82667;PMS5003;72691;51.374;-0.176;2023-10-13T12:42:03;8;7;
82667;PMS5003;72691;51.374;-0.176;2023-10-13T12:44:29;4;4;
82667;PMS5003;72691;51.374;-0.176;2023-10-13T12:46:54;5;5;
82667;PMS5003;72691;51.374;-0.176;2023-10-13T12:49:19;7;7;
82667;PMS5003;72691;51.374;-0.176;2023-10-13T12:51:45;7;6;
82667;PMS5003;72691;51.374;-0.176;2023-10-13T12:54:10;6;6;
82667;PMS5003;72691;51.374;-0.176;2023-10-13T12:56:35;8;7;
82667;PMS5003;72691;51.374;-0.176;2023-10-13T12:59:01;8;7;
82667;PMS5003;72691;51.374;-0.176;2023-10-13T13:01:26;10;9;
82667;PMS5003;72691;51.374;-0.176;2023-10-13T13:03:51;7;6;
82667;PMS5003;72691;51.374;-0.176;2023-10-13T13:06:17;7;6;
82667;PMS5003;72691;51.374;-0.176;2023-10-13T13:08:42;7;6;
82667;PMS5003;72691;51.374;-0.176;2023-10-13T13:11:07;7;6;
82667;PMS5003;72691;51.374;-0.176;2023-10-13T13:13:33;7;7;
82667;PMS5003;72691;51.374;-0.176;2023-10-13T13:15:58;7;7;
82667;PMS5003;72691;51.374;-0.176;2023-10-13T13:18:23;8;8;
82667;PMS5003;72691;51.374;-0.176;2023-10-13T13:20:49;4;3;
82667;PMS5003;72691;51.374;-0.176;2023-10-13T13:23:14;6;6;
82667;PMS5003;72691;51.374;-0.176;2023-10-13T13:25:39;6;5;
82667;PMS5003;72691;51.374;-0.176;2023-10-13T13:28:05;4;3;
82667;PMS5003;72691;51.374;-0.176;2023-10-13T13:30:30;3;3;
82667;PMS5003;72691;51.374;-0.176;2023-10-13T13:32:55;3;2;
82667;PMS5003;72691;51.374;-0.176;2023-10-13T13:35:20;4;4;
82667;PMS5003;72691;51.374;-0.176;2023-10-13T13:37:46;2;1;
82667;PMS5003;72691;51.374;-0.176;2023-10-13T13:40:11;3;3;
82667;PMS5003;72691;51.374;-0.176;2023-10-13T13:42:36;3;3;
82667;PMS5003;72691;51.374;-0.176;2023-10-13T13:45:02;5;4;
82667;PMS5003;72691;51.374;-0.176;2023-10-13T13:47:27;3;2;
82667;PMS5003;72691;51.374;-0.176;2023-10-13T13:49:52;2;1;
82667;PMS5003;72691;51.374;-0.176;2023-10-13T13:52:18;3;3;
82667;PMS5003;72691;51.374;-0.176;2023-10-13T13:54:43;5;4;
82667;PMS5003;72691;51.374;-0.176;2023-10-13T13:57:08;4;4;
82667;PMS5003;72691;51.374;-0.176;2023-10-13T13:59:34;3;3;
82667;PMS5003;72691;51.374;-0.176;2023-10-13T14:02:00;3;3;
82667;PMS5003;72691;51.374;-0.176;2023-10-13T14:04:24;5;4;
82667;PMS5003;72691;51.374;-0.176;2023-10-13T14:06:50;4;4;
82667;PMS5003;72691;51.374;-0.176;2023-10-13T14:09:15;5;4;
82667;PMS5003;72691;51.374;-0.176;2023-10-13T14:11:41;3;3;
82667;PMS5003;72691;51.374;-0.176;2023-10-13T14:14:06;3;3;
82667;PMS5003;72691;51.374;-0.176;2023-10-13T14:16:31;3;3;
82667;PMS5003;72691;51.374;-0.176;2023-10-13T14:18:56;2;2;
82667;PMS5003;72691;51.374;-0.176;2023-10-13T14:21:21;3;3;
82667;PMS5003;72691;51.374;-0.176;2023-10-13T14:23:48;5;5;
82667;PMS5003;72691;51.374;-0.176;2023-10-13T14:26:13;2;1;
82667;PMS5003;72691;51.374;-0.176;2023-10-13T14:28:38;4;3;
82667;PMS5003;72691;51.374;-0.176;2023-10-13T14:31:04;5;4;
82667;PMS5003;72691;51.374;-0.176;2023-10-13T14:33:28;2;2;
82667;PMS5003;72691;51.374;-0.176;2023-10-13T14:35:54;4;4;
82667;PMS5003;72691;51.374;-0.176;2023-10-13T14:38:19;4;4;
82667;PMS5003;72691;51.374;-0.176;2023-10-13T14:40:44;2;2;
82667;PMS5003;72691;51.374;-0.176;2023-10-13T14:43:09;3;3;
82667;PMS5003;72691;51.374;-0.176;2023-10-13T14:45:35;2;2;
82667;PMS5003;72691;51.374;-0.176;2023-10-13T14:48:00;2;2;
82667;PMS5003;72691;51.374;-0.176;2023-10-13T14:50:26;2;2;
82667;PMS5003;72691;51.374;-0.176;2023-10-13T14:52:51;3;3;
82667;PMS5003;72691;51.374;-0.176;2023-10-13T14:55:16;5;3;
82667;PMS5003;72691;51.374;-0.176;2023-10-13T14:57:42;2;2;
82667;PMS5003;72691;51.374;-0.176;2023-10-13T15:00:07;2;1;
82667;PMS5003;72691;51.374;-0.176;2023-10-13T15:02:32;3;3;
82667;PMS5003;72691;51.374;-0.176;2023-10-13T15:04:58;0;0;
82667;PMS5003;72691;51.374;-0.176;2023-10-13T15:07:23;3;3;
82667;PMS5003;72691;51.374;-0.176;2023-10-13T15:09:48;3;2;
82667;PMS5003;72691;51.374;-0.176;2023-10-13T15:12:14;4;3;
82667;PMS5003;72691;51.374;-0.176;2023-10-13T15:14:39;3;3;
82667;PMS5003;72691;51.374;-0.176;2023-10-13T15:17:05;2;2;
82667;PMS5003;72691;51.374;-0.176;2023-10-13T15:19:30;4;3;
82667;PMS5003;72691;51.374;-0.176;2023-10-13T15:21:55;2;2;
82667;PMS5003;72691;51.374;-0.176;2023-10-13T15:24:21;2;2;
82667;PMS5003;72691;51.374;-0.176;2023-10-13T15:26:46;4;3;
82667;PMS5003;72691;51.374;-0.176;2023-10-13T15:29:11;4;4;
82667;PMS5003;72691;51.374;-0.176;2023-10-13T15:31:37;3;3;
82667;PMS5003;72691;51.374;-0.176;2023-10-13T15:34:03;4;2;
82667;PMS5003;72691;51.374;-0.176;2023-10-13T15:36:28;2;1;
82667;PMS5003;72691;51.374;-0.176;2023-10-13T15:38:53;3;3;
82667;PMS5003;72691;51.374;-0.176;2023-10-13T15:41:22;1;1;
82667;PMS5003;72691;51.374;-0.176;2023-10-13T15:43:45;1;1;
82667;PMS5003;72691;51.374;-0.176;2023-10-13T15:46:12;1;1;
82667;PMS5003;72691;51.374;-0.176;2023-10-13T15:48:34;3;1;
82667;PMS5003;72691;51.374;-0.176;2023-10-13T15:50:59;0;0;
82667;PMS5003;72691;51.374;-0.176;2023-10-13T15:53:25;1;1;
82667;PMS5003;72691;51.374;-0.176;2023-10-13T15:55:50;2;1;
82667;PMS5003;72691;51.374;-0.176;2023-10-13T15:58:16;2;1;
82667;PMS5003;72691;51.374;-0.176;2023-10-13T16:00:41;2;2;
82667;PMS5003;72691;51.374;-0.176;2023-10-13T16:03:06;2;1;
82667;PMS5003;72691;51.374;-0.176;2023-10-13T16:05:32;3;2;
82667;PMS5003;72691;51.374;-0.176;2023-10-13T16:07:57;2;1;
82667;PMS5003;72691;51.374;-0.176;2023-10-13T16:10:22;2;2;
82667;PMS5003;72691;51.374;-0.176;2023-10-13T16:12:48;1;1;
82667;PMS5003;72691;51.374;-0.176;2023-10-13T16:15:13;1;1;
82667;PMS5003;72691;51.374;-0.176;2023-10-13T16:17:40;2;2;
82667;PMS5003;72691;51.374;-0.176;2023-10-13T16:20:05;1;1;
82667;PMS5003;72691;51.374;-0.176;2023-10-13T16:22:31;3;2;
82667;PMS5003;72691;51.374;-0.176;2023-10-13T16:24:55;2;2;
82667;PMS5003;72691;51.374;-0.176;2023-10-13T16:27:20;2;2;
82667;PMS5003;72691;51.374;-0.176;2023-10-13T16:29:45;3;2;
82667;PMS5003;72691;51.374;-0.176;2023-10-13T16:32:10;1;1;
82667;PMS5003;72691;51.374;-0.176;2023-10-13T16:34:36;1;1;
82667;PMS5003;72691;51.374;-0.176;2023-10-13T16:37:01;3;3;
82667;PMS5003;72691;51.374;-0.176;2023-10-13T16:39:27;4;3;
82667;PMS5003;72691;51.374;-0.176;2023-10-13T16:41:52;4;2;
82667;PMS5003;72691;51.374;-0.176;2023-10-13T16:44:17;0;0;
82667;PMS5003;72691;51.374;-0.176;2023-10-13T16:46:43;1;1;
82667;PMS5003;72691;51.374;-0.176;2023-10-13T16:49:08;5;5;
82667;PMS5003;72691;51.374;-0.176;2023-10-13T16:51:33;1;1;
82667;PMS5003;72691;51.374;-0.176;2023-10-13T16:53:59;2;1;
82667;PMS5003;72691;51.374;-0.176;2023-10-13T16:56:24;3;1;
82667;PMS5003;72691;51.374;-0.176;2023-10-13T16:58:49;3;3;
82667;PMS5003;72691;51.374;-0.176;2023-10-13T17:01:15;2;1;
82667;PMS5003;72691;51.374;-0.176;2023-10-13T17:03:41;1;1;
82667;PMS5003;72691;51.374;-0.176;2023-10-13T17:06:06;1;1;
82667;PMS5003;72691;51.374;-0.176;2023-10-13T17:08:31;1;1;
82667;PMS5003;72691;51.374;-0.176;2023-10-13T17:10:56;0;0;
82667;PMS5003;72691;51.374;-0.176;2023-10-13T17:13:21;3;3;
82667;PMS5003;72691;51.374;-0.176;2023-10-13T17:15:47;0;0;
82667;PMS5003;72691;51.374;-0.176;2023-10-13T17:18:12;1;1;
82667;PMS5003;72691;51.374;-0.176;2023-10-13T17:20:38;1;1;
82667;PMS5003;72691;51.374;-0.176;2023-10-13T17:23:03;2;2;
82667;PMS5003;72691;51.374;-0.176;2023-10-13T17:25:28;0;0;
82667;PMS5003;72691;51.374;-0.176;2023-10-13T17:27:53;1;1;
82667;PMS5003;72691;51.374;-0.176;2023-10-13T17:30:19;1;1;
82667;PMS5003;72691;51.374;-0.176;2023-10-13T17:32:44;4;3;